createdAt,value
2018-06-04T00:00:24.169Z,56.70
2018-06-04T00:01:24.138Z,110.00
2018-06-04T00:02:24.128Z,33.40
2018-06-04T00:03:24.074Z,39.60
2018-06-04T00:04:24.030Z,39.50
2018-06-04T00:05:24.005Z,101.00
2018-06-04T00:06:23.973Z,44.70
2018-06-04T00:07:23.921Z,55.30
2018-06-04T00:08:23.906Z,67.20
2018-06-04T00:09:23.864Z,56.10
2018-06-04T00:10:23.831Z,196.90
2018-06-04T00:11:23.797Z,339.00
2018-06-04T00:12:23.759Z,56.80
2018-06-04T00:13:23.917Z,62.40
2018-06-04T00:14:23.686Z,74.60
2018-06-04T00:15:23.677Z,74.50
2018-06-04T00:16:23.620Z,483.30
2018-06-04T00:17:23.581Z,232.80
2018-06-04T00:18:23.551Z,67.70
2018-06-04T00:19:23.491Z,45.20
2018-06-04T00:20:23.483Z,47.40
2018-06-04T00:21:23.433Z,45.20
2018-06-04T00:22:23.408Z,61.70
2018-06-04T00:23:23.372Z,64.50
2018-06-04T00:24:23.318Z,167.30
2018-06-04T00:25:23.298Z,115.00
2018-06-04T00:26:23.257Z,95.30
2018-06-04T00:27:23.255Z,106.30
2018-06-04T00:28:23.207Z,59.30
2018-06-04T00:29:23.228Z,54.10
2018-06-04T00:30:23.117Z,45.40
2018-06-04T00:31:23.078Z,43.80
2018-06-04T00:32:23.094Z,56.20
2018-06-04T00:33:23.041Z,160.00
2018-06-04T00:34:22.988Z,140.60
2018-06-04T00:35:22.951Z,303.50
2018-06-04T00:36:23.397Z,398.50
2018-06-04T00:37:22.856Z,287.00
2018-06-04T00:38:22.857Z,560.00
2018-06-04T00:39:23.397Z,202.60
2018-06-04T00:40:22.794Z,90.70
2018-06-04T00:41:22.720Z,206.50
2018-06-04T00:42:22.708Z,456.30
2018-06-04T00:43:22.765Z,472.50
2018-06-04T00:44:22.614Z,454.90
2018-06-04T00:45:23.396Z,523.70
2018-06-04T00:46:22.589Z,611.20
2018-06-04T00:47:22.517Z,333.60
2018-06-04T00:48:22.480Z,393.30
2018-06-04T00:49:22.476Z,288.90
2018-06-04T00:50:22.427Z,171.80
2018-06-04T00:51:22.422Z,48.60
2018-06-04T00:52:22.379Z,63.10
2018-06-04T00:53:22.297Z,49.10
2018-06-04T00:54:22.275Z,49.90
2018-06-04T00:55:22.232Z,44.00
2018-06-04T00:56:22.203Z,42.00
2018-06-04T00:57:22.160Z,44.00
2018-06-04T00:58:22.121Z,46.10
2018-06-04T00:59:22.903Z,45.50
2018-06-04T01:00:22.048Z,42.70
2018-06-04T01:01:22.027Z,58.30
2018-06-04T01:02:21.997Z,46.10
2018-06-04T01:03:21.942Z,44.80
2018-06-04T01:04:21.942Z,47.50
2018-06-04T01:05:21.864Z,39.50
2018-06-04T01:06:21.826Z,37.70
2018-06-04T01:07:21.834Z,39.20
2018-06-04T01:08:21.768Z,37.90
2018-06-04T01:09:21.728Z,47.10
2018-06-04T01:10:21.737Z,53.60
2018-06-04T01:11:22.408Z,61.90
2018-06-04T01:12:21.618Z,108.00
2018-06-04T01:13:21.600Z,75.50
2018-06-04T01:14:21.570Z,124.90
2018-06-04T01:15:21.528Z,211.30
2018-06-04T01:16:21.476Z,56.70
2018-06-04T01:17:21.445Z,61.60
2018-06-04T01:18:21.406Z,62.60
2018-06-04T01:19:21.488Z,246.20
2018-06-04T01:20:21.383Z,299.80
2018-06-04T01:21:21.333Z,75.50
2018-06-04T01:22:21.337Z,52.50
2018-06-04T01:23:21.289Z,49.50
2018-06-04T01:24:21.264Z,38.80
2018-06-04T01:25:21.179Z,129.00
2018-06-04T01:26:21.149Z,236.10
2018-06-04T01:27:21.102Z,234.50
2018-06-04T01:28:21.057Z,128.80
2018-06-04T01:29:21.002Z,589.60
2018-06-04T01:30:20.976Z,521.90
2018-06-04T01:31:20.952Z,549.00
2018-06-04T01:32:20.924Z,245.20
2018-06-04T01:33:20.876Z,80.50
2018-06-04T01:34:20.863Z,51.20
2018-06-04T01:35:21.415Z,54.50
2018-06-04T01:36:20.754Z,56.70
2018-06-04T01:37:20.797Z,51.50
2018-06-04T01:38:20.718Z,49.30
2018-06-04T01:39:20.682Z,28.30
2018-06-04T01:40:20.653Z,45.20
2018-06-04T01:41:20.583Z,213.20
2018-06-04T01:42:21.410Z,514.40
2018-06-04T01:43:20.523Z,659.30
2018-06-04T01:44:20.489Z,940.60
2018-06-04T01:45:20.461Z,830.00
2018-06-04T01:46:20.447Z,538.10
2018-06-04T01:47:20.375Z,285.50
2018-06-04T01:48:20.362Z,250.70
2018-06-04T01:49:20.309Z,195.20
2018-06-04T01:50:20.269Z,252.10
2018-06-04T01:51:20.223Z,138.50
2018-06-04T01:52:20.204Z,87.30
2018-06-04T01:53:20.173Z,92.10
2018-06-04T01:54:20.111Z,267.60
2018-06-04T01:55:20.117Z,164.10
2018-06-04T01:56:20.074Z,65.50
2018-06-04T01:57:20.019Z,57.00
2018-06-04T01:58:19.981Z,46.40
2018-06-04T01:59:19.947Z,48.80
2018-06-04T02:00:19.931Z,46.80
2018-06-04T02:01:19.856Z,49.20
2018-06-04T02:02:19.846Z,52.70
2018-06-04T02:03:19.786Z,48.60
2018-06-04T02:04:19.798Z,48.00
2018-06-04T02:05:20.418Z,44.40
2018-06-04T02:06:19.708Z,52.30
2018-06-04T02:07:20.422Z,63.90
2018-06-04T02:08:19.623Z,92.20
2018-06-04T02:09:19.600Z,116.50
2018-06-04T02:10:19.546Z,68.10
2018-06-04T02:11:19.530Z,57.50
2018-06-04T02:12:19.466Z,72.60
2018-06-04T02:13:19.467Z,66.90
2018-06-04T02:14:19.432Z,61.70
2018-06-04T02:15:19.393Z,64.90
2018-06-04T02:16:19.332Z,61.90
2018-06-04T02:17:19.304Z,65.40
2018-06-04T02:18:19.281Z,55.90
2018-06-04T02:19:19.268Z,76.20
2018-06-04T02:20:19.923Z,52.50
2018-06-04T02:21:19.193Z,69.00
2018-06-04T02:22:19.109Z,68.30
2018-06-04T02:23:19.088Z,67.10
2018-06-04T02:24:19.084Z,75.60
2018-06-04T02:25:19.021Z,76.30
2018-06-04T02:26:19.013Z,75.40
2018-06-04T02:27:18.966Z,69.50
2018-06-04T02:28:18.891Z,64.80
2018-06-04T02:29:18.851Z,59.20
2018-06-04T02:30:18.858Z,58.00
2018-06-04T02:31:18.809Z,60.60
2018-06-04T02:32:18.752Z,61.90
2018-06-04T02:33:18.713Z,63.20
2018-06-04T02:34:18.715Z,62.60
2018-06-04T02:35:18.640Z,59.50
2018-06-04T02:36:18.629Z,66.10
2018-06-04T02:37:18.592Z,58.60
2018-06-04T02:38:18.556Z,56.10
2018-06-04T02:39:18.495Z,65.00
2018-06-04T02:40:18.542Z,63.50
2018-06-04T02:41:18.434Z,57.60
2018-06-04T02:42:18.434Z,53.60
2018-06-04T02:43:18.469Z,50.40
2018-06-04T02:44:18.330Z,44.90
2018-06-04T02:45:18.319Z,48.20
2018-06-04T02:46:18.255Z,42.70
2018-06-04T02:47:18.246Z,40.10
2018-06-04T02:48:18.202Z,45.20
2018-06-04T02:49:18.155Z,46.90
2018-06-04T02:50:18.164Z,47.50
2018-06-04T02:51:18.087Z,49.20
2018-06-04T02:52:18.039Z,48.50
2018-06-04T02:53:18.028Z,48.50
2018-06-04T02:54:17.984Z,49.40
2018-06-04T02:55:17.917Z,57.10
2018-06-04T02:56:17.929Z,55.10
2018-06-04T02:57:17.897Z,67.10
2018-06-04T02:58:17.829Z,58.60
2018-06-04T02:59:17.807Z,42.20
2018-06-04T03:00:18.444Z,45.20
2018-06-04T03:01:17.799Z,52.30
2018-06-04T03:02:18.441Z,54.10
2018-06-04T03:03:17.638Z,54.00
2018-06-04T03:04:17.604Z,51.70
2018-06-04T03:05:17.565Z,60.90
2018-06-04T03:06:17.545Z,57.60
2018-06-04T03:07:17.515Z,65.50
2018-06-04T03:08:17.478Z,82.70
2018-06-04T03:09:17.422Z,89.50
2018-06-04T03:10:17.417Z,111.50
2018-06-04T03:11:17.361Z,110.40
2018-06-04T03:12:17.315Z,88.20
2018-06-04T03:13:17.280Z,65.80
2018-06-04T03:14:17.259Z,56.90
2018-06-04T03:15:17.210Z,85.20
2018-06-04T03:16:17.190Z,58.70
2018-06-04T03:17:17.209Z,58.80
2018-06-04T03:18:17.115Z,51.50
2018-06-04T03:19:17.091Z,49.80
2018-06-04T03:20:17.042Z,55.90
2018-06-04T03:21:17.063Z,53.40
2018-06-04T03:22:16.958Z,63.30
2018-06-04T03:23:16.923Z,71.40
2018-06-04T03:24:16.892Z,61.30
2018-06-04T03:25:16.864Z,66.40
2018-06-04T03:26:16.822Z,58.50
2018-06-04T03:27:17.440Z,49.90
2018-06-04T03:28:16.840Z,50.90
2018-06-04T03:29:16.745Z,59.60
2018-06-04T03:30:16.698Z,56.80
2018-06-04T03:31:16.647Z,61.40
2018-06-04T03:32:16.621Z,56.90
2018-06-04T03:33:16.641Z,47.90
2018-06-04T03:34:16.552Z,42.40
2018-06-04T03:35:16.504Z,40.50
2018-06-04T03:36:16.480Z,38.60
2018-06-04T03:37:16.455Z,36.40
2018-06-04T03:38:16.447Z,35.80
2018-06-04T03:39:16.374Z,39.50
2018-06-04T03:40:16.332Z,39.90
2018-06-04T03:41:16.310Z,43.80
2018-06-04T03:42:16.262Z,48.00
2018-06-04T03:43:16.211Z,42.00
2018-06-04T03:44:18.478Z,49.30
2018-06-04T03:45:16.192Z,44.80
2018-06-04T03:47:09.605Z,48.90
2018-06-04T03:48:09.209Z,56.00
2018-06-04T03:50:02.494Z,52.00
2018-06-04T03:51:02.313Z,42.00
2018-06-04T03:52:55.670Z,44.60
2018-06-04T03:53:55.308Z,41.90
2018-06-04T03:55:48.425Z,38.40
2018-06-04T03:56:48.436Z,32.40
2018-06-04T03:58:41.609Z,36.90
2018-06-04T03:59:41.356Z,36.40
2018-06-04T04:01:34.693Z,41.90
2018-06-04T04:02:35.269Z,35.10
2018-06-04T04:03:34.338Z,36.10
2018-06-04T04:04:34.375Z,39.10
2018-06-04T04:05:34.306Z,39.40
2018-06-04T04:06:34.232Z,41.60
2018-06-04T04:07:34.228Z,38.90
2018-06-04T04:08:34.189Z,33.70
2018-06-04T04:09:34.142Z,37.60
2018-06-04T04:10:34.094Z,34.40
2018-06-04T04:11:34.267Z,34.20
2018-06-04T04:12:34.039Z,28.10
2018-06-04T04:13:33.987Z,24.80
2018-06-04T04:14:33.948Z,24.20
2018-06-04T04:15:33.935Z,22.70
2018-06-04T04:16:33.882Z,20.30
2018-06-04T04:17:33.866Z,20.00
2018-06-04T04:18:33.820Z,20.10
2018-06-04T04:19:33.818Z,18.70
2018-06-04T04:20:33.788Z,18.20
2018-06-04T04:21:33.725Z,17.70
2018-06-04T04:22:33.681Z,17.30
2018-06-04T04:23:33.674Z,17.40
2018-06-04T04:24:33.649Z,16.80
2018-06-04T04:25:33.615Z,16.60
2018-06-04T04:26:33.603Z,16.10
2018-06-04T04:27:33.547Z,16.50
2018-06-04T04:28:33.501Z,17.20
2018-06-04T04:29:33.461Z,16.30
2018-06-04T04:30:33.445Z,15.90
2018-06-04T04:31:33.386Z,16.20
2018-06-04T04:32:33.387Z,15.60
2018-06-04T04:33:33.366Z,16.70
2018-06-04T04:34:33.311Z,16.90
2018-06-04T04:35:33.309Z,16.70
2018-06-04T04:36:33.234Z,16.70
2018-06-04T04:37:33.266Z,17.90
2018-06-04T04:38:33.180Z,17.80
2018-06-04T04:39:33.185Z,17.60
2018-06-04T04:40:33.202Z,16.60
2018-06-04T04:41:33.097Z,16.10
2018-06-04T04:42:33.102Z,17.50
2018-06-04T04:43:33.073Z,17.40
2018-06-04T04:44:32.997Z,16.70
2018-06-04T04:45:32.965Z,16.50
2018-06-04T04:46:32.909Z,17.00
2018-06-04T04:47:32.918Z,18.90
2018-06-04T04:48:32.888Z,19.20
2018-06-04T04:49:32.816Z,19.00
2018-06-04T04:50:32.799Z,19.10
2018-06-04T04:51:32.759Z,20.80
2018-06-04T04:52:32.720Z,21.90
2018-06-04T04:53:32.737Z,20.60
2018-06-04T04:54:32.654Z,19.10
2018-06-04T04:55:32.653Z,17.90
2018-06-04T04:56:32.633Z,16.90
2018-06-04T04:57:32.598Z,17.90
2018-06-04T04:58:32.565Z,18.90
2018-06-04T04:59:32.565Z,18.30
2018-06-04T05:00:32.535Z,18.70
2018-06-04T05:01:32.469Z,17.50
2018-06-04T05:02:32.439Z,16.10
2018-06-04T05:03:32.389Z,15.40
2018-06-04T05:04:32.547Z,15.60
2018-06-04T05:05:32.338Z,15.30
2018-06-04T05:06:32.351Z,16.10
2018-06-04T05:07:32.265Z,17.00
2018-06-04T05:08:32.243Z,17.80
2018-06-04T05:09:32.200Z,19.10
2018-06-04T05:10:32.175Z,17.90
2018-06-04T05:11:32.139Z,17.90
2018-06-04T05:12:32.107Z,19.10
2018-06-04T05:13:32.071Z,18.70
2018-06-04T05:14:32.649Z,18.90
2018-06-04T05:15:32.027Z,19.40
2018-06-04T05:16:32.024Z,18.70
2018-06-04T05:17:31.978Z,17.80
2018-06-04T05:18:31.952Z,13.70
2018-06-04T05:19:31.936Z,13.50
2018-06-04T05:20:31.876Z,13.90
2018-06-04T05:21:31.828Z,16.40
2018-06-04T05:22:31.825Z,16.40
2018-06-04T05:23:31.764Z,16.90
2018-06-04T05:24:31.773Z,16.80
2018-06-04T05:25:31.704Z,17.20
2018-06-04T05:26:31.700Z,16.60
2018-06-04T05:27:31.638Z,16.90
2018-06-04T05:28:31.623Z,15.60
2018-06-04T05:29:31.603Z,16.00
2018-06-04T05:30:31.560Z,15.90
2018-06-04T05:31:31.573Z,16.50
2018-06-04T05:32:31.507Z,17.60
2018-06-04T05:33:31.492Z,18.00
2018-06-04T05:34:31.441Z,18.00
2018-06-04T05:35:31.402Z,17.60
2018-06-04T05:36:31.409Z,18.30
2018-06-04T05:37:31.371Z,17.00
2018-06-04T05:38:31.322Z,17.20
2018-06-04T05:39:31.296Z,17.70
2018-06-04T05:40:31.274Z,17.90
2018-06-04T05:41:31.275Z,17.50
2018-06-04T05:42:31.227Z,17.70
2018-06-04T05:43:31.184Z,17.10
2018-06-04T05:44:31.169Z,16.90
2018-06-04T05:45:31.118Z,15.20
2018-06-04T05:46:31.116Z,15.60
2018-06-04T05:47:31.080Z,16.10
2018-06-04T05:48:31.048Z,15.30
2018-06-04T05:49:31.042Z,17.80
2018-06-04T05:50:31.019Z,18.90
2018-06-04T05:51:30.957Z,18.30
2018-06-04T05:52:30.926Z,18.00
2018-06-04T05:53:30.921Z,19.20
2018-06-04T05:54:30.853Z,17.70
2018-06-04T05:55:30.824Z,18.20
2018-06-04T05:56:30.819Z,18.50
2018-06-04T05:57:30.761Z,18.80
2018-06-04T05:58:30.745Z,18.00
2018-06-04T05:59:30.705Z,18.70
2018-06-04T06:00:30.678Z,18.90
2018-06-04T06:01:30.702Z,19.50
2018-06-04T06:02:30.626Z,20.30
2018-06-04T06:03:30.594Z,19.60
2018-06-04T06:04:30.573Z,20.70
2018-06-04T06:05:30.557Z,22.10
2018-06-04T06:06:30.513Z,23.00
2018-06-04T06:07:30.470Z,21.90
2018-06-04T06:08:30.442Z,22.10
2018-06-04T06:09:30.439Z,22.60
2018-06-04T06:10:30.410Z,23.60
2018-06-04T06:11:30.385Z,26.00
2018-06-04T06:12:30.331Z,25.00
2018-06-04T06:13:30.295Z,25.30
2018-06-04T06:14:30.336Z,26.10
2018-06-04T06:15:30.247Z,25.90
2018-06-04T06:16:30.224Z,26.10
2018-06-04T06:17:30.197Z,26.20
2018-06-04T06:18:30.156Z,27.70
2018-06-04T06:19:30.170Z,27.70
2018-06-04T06:20:30.121Z,27.50
2018-06-04T06:21:30.189Z,27.70
2018-06-04T06:22:30.051Z,27.80
2018-06-04T06:23:30.056Z,29.10
2018-06-04T06:24:29.993Z,27.70
2018-06-04T06:25:30.021Z,31.00
2018-06-04T06:26:29.950Z,30.70
2018-06-04T06:27:29.895Z,32.10
2018-06-04T06:28:30.685Z,31.80
2018-06-04T06:29:29.860Z,32.10
2018-06-04T06:30:30.683Z,32.70
2018-06-04T06:31:29.781Z,32.30
2018-06-04T06:32:29.802Z,30.80
2018-06-04T06:33:29.729Z,31.00
2018-06-04T06:34:29.714Z,32.20
2018-06-04T06:35:29.719Z,30.80
2018-06-04T06:36:29.645Z,31.50
2018-06-04T06:37:29.611Z,31.30
2018-06-04T06:38:29.600Z,30.30
2018-06-04T06:39:29.556Z,30.10
2018-06-04T06:40:29.558Z,28.60
2018-06-04T06:41:29.534Z,29.20
2018-06-04T06:42:29.545Z,28.40
2018-06-04T06:43:29.479Z,25.80
2018-06-04T06:44:29.428Z,25.90
2018-06-04T06:45:29.453Z,24.30
2018-06-04T06:46:29.365Z,25.50
2018-06-04T06:47:29.363Z,25.20
2018-06-04T06:48:29.309Z,25.70
2018-06-04T06:49:29.301Z,25.50
2018-06-04T06:50:29.246Z,25.30
2018-06-04T06:51:29.237Z,25.60
2018-06-04T06:52:29.193Z,25.20
2018-06-04T06:53:29.188Z,24.70
2018-06-04T06:54:29.159Z,23.60
2018-06-04T06:55:29.261Z,24.60
2018-06-04T06:56:29.112Z,23.90
2018-06-04T06:57:29.063Z,23.00
2018-06-04T06:58:29.027Z,23.10
2018-06-04T06:59:29.032Z,22.80
2018-06-04T07:00:28.971Z,22.20
2018-06-04T07:01:28.958Z,22.10
2018-06-04T07:02:28.916Z,21.60
2018-06-04T07:03:28.916Z,22.70
2018-06-04T07:04:28.873Z,21.30
2018-06-04T07:05:28.853Z,20.80
2018-06-04T07:06:28.841Z,20.70
2018-06-04T07:07:28.821Z,21.60
2018-06-04T07:08:28.764Z,21.40
2018-06-04T07:09:28.760Z,20.20
2018-06-04T07:10:28.796Z,20.10
2018-06-04T07:11:28.709Z,20.20
2018-06-04T07:12:28.684Z,18.80
2018-06-04T07:13:28.653Z,19.30
2018-06-04T07:14:28.643Z,18.90
2018-06-04T07:15:28.601Z,18.00
2018-06-04T07:16:28.617Z,17.50
2018-06-04T07:17:28.590Z,18.90
2018-06-04T07:18:28.578Z,19.00
2018-06-04T07:19:28.595Z,18.30
2018-06-04T07:20:28.519Z,18.10
2018-06-04T07:21:28.507Z,17.00
2018-06-04T07:22:28.468Z,17.30
2018-06-04T07:23:28.427Z,16.80
2018-06-04T07:24:28.400Z,18.10
2018-06-04T07:25:28.389Z,18.20
2018-06-04T07:26:28.369Z,18.60
2018-06-04T07:27:28.353Z,18.60
2018-06-04T07:28:28.321Z,17.40
2018-06-04T07:29:28.315Z,17.60
2018-06-04T07:30:28.275Z,16.70
2018-06-04T07:31:28.784Z,16.10
2018-06-04T07:32:28.254Z,15.70
2018-06-04T07:33:28.222Z,15.60
2018-06-04T07:34:28.199Z,17.30
2018-06-04T07:35:28.176Z,16.30
2018-06-04T07:36:28.162Z,16.50
2018-06-04T07:37:28.186Z,16.00
2018-06-04T07:38:28.216Z,16.00
2018-06-04T07:39:28.140Z,17.30
2018-06-04T07:40:28.097Z,16.10
2018-06-04T07:41:28.075Z,16.50
2018-06-04T07:42:28.053Z,16.40
2018-06-04T07:43:28.040Z,17.10
2018-06-04T07:44:28.125Z,17.00
2018-06-04T07:45:28.090Z,17.80
2018-06-04T07:46:27.995Z,17.10
2018-06-04T07:47:27.968Z,15.80
2018-06-04T07:48:27.969Z,16.10
2018-06-04T07:49:27.946Z,17.20
2018-06-04T07:50:27.909Z,16.10
2018-06-04T07:51:27.910Z,17.30
2018-06-04T07:52:27.874Z,17.20
2018-06-04T07:53:27.929Z,16.10
2018-06-04T07:54:27.835Z,16.70
2018-06-04T07:55:27.881Z,16.30
2018-06-04T07:56:27.968Z,16.90
2018-06-04T07:57:27.779Z,17.40
2018-06-04T07:58:27.759Z,16.90
2018-06-04T07:59:27.735Z,17.10
2018-06-04T08:00:27.739Z,17.30
2018-06-04T08:01:27.708Z,16.90
2018-06-04T08:02:27.707Z,16.20
2018-06-04T08:03:27.682Z,15.30
2018-06-04T08:04:27.715Z,15.30
2018-06-04T08:05:27.622Z,14.90
2018-06-04T08:06:27.690Z,15.20
2018-06-04T08:07:27.608Z,15.50
2018-06-04T08:08:27.595Z,16.20
2018-06-04T08:09:27.568Z,14.50
2018-06-04T08:10:27.538Z,14.50
2018-06-04T08:11:27.548Z,14.50
2018-06-04T08:12:27.508Z,15.10
2018-06-04T08:13:27.530Z,16.30
2018-06-04T08:14:27.495Z,16.20
2018-06-04T08:15:27.460Z,18.20
2018-06-04T08:16:27.445Z,15.80
2018-06-04T08:17:27.443Z,17.30
2018-06-04T08:18:27.424Z,18.00
2018-06-04T08:19:27.416Z,16.70
2018-06-04T08:20:27.366Z,16.40
2018-06-04T08:21:27.366Z,16.10
2018-06-04T08:22:27.350Z,14.80
2018-06-04T08:23:27.296Z,14.40
2018-06-04T08:24:27.291Z,15.40
2018-06-04T08:25:27.257Z,17.10
2018-06-04T08:26:27.259Z,16.90
2018-06-04T08:27:27.246Z,16.60
2018-06-04T08:28:27.207Z,16.90
2018-06-04T08:29:27.200Z,17.50
2018-06-04T08:30:27.188Z,17.90
2018-06-04T08:31:27.158Z,16.80
2018-06-04T08:32:27.161Z,17.70
2018-06-04T08:33:27.106Z,16.60
2018-06-04T08:34:27.117Z,17.00
2018-06-04T08:35:27.088Z,17.00
2018-06-04T08:36:27.067Z,17.30
2018-06-04T08:37:27.064Z,16.60
2018-06-04T08:38:27.087Z,16.90
2018-06-04T08:39:27.027Z,15.80
2018-06-04T08:40:26.999Z,15.70
2018-06-04T08:41:26.984Z,15.70
2018-06-04T08:42:26.967Z,15.30
2018-06-04T08:43:26.943Z,15.00
2018-06-04T08:44:26.929Z,15.00
2018-06-04T08:45:26.885Z,14.60
2018-06-04T08:46:26.878Z,15.10
2018-06-04T08:47:26.861Z,16.00
2018-06-04T08:48:26.827Z,16.30
2018-06-04T08:49:26.803Z,15.30
2018-06-04T08:50:26.783Z,14.20
2018-06-04T08:51:26.763Z,14.20
2018-06-04T08:52:26.774Z,14.20
2018-06-04T08:53:26.728Z,14.50
2018-06-04T08:54:26.732Z,14.40
2018-06-04T08:55:26.684Z,13.60
2018-06-04T08:56:26.681Z,14.40
2018-06-04T08:57:26.648Z,13.60
2018-06-04T08:58:26.617Z,13.80
2018-06-04T08:59:26.614Z,13.20
2018-06-04T09:00:26.582Z,13.80
2018-06-04T09:01:26.584Z,13.80
2018-06-04T09:02:26.535Z,14.00
2018-06-04T09:03:26.558Z,12.90
2018-06-04T09:04:26.500Z,13.80
2018-06-04T09:05:26.512Z,13.00
2018-06-04T09:06:26.485Z,13.40
2018-06-04T09:07:26.446Z,13.50
2018-06-04T09:08:26.426Z,14.30
2018-06-04T09:09:26.391Z,13.40
2018-06-04T09:10:26.397Z,13.20
2018-06-04T09:11:26.363Z,12.30
2018-06-04T09:12:26.340Z,12.60
2018-06-04T09:13:26.309Z,13.10
2018-06-04T09:14:26.283Z,13.70
2018-06-04T09:15:26.272Z,13.70
2018-06-04T09:16:26.253Z,13.00
2018-06-04T09:17:26.210Z,13.40
2018-06-04T09:18:26.208Z,13.60
2018-06-04T09:19:26.180Z,12.20
2018-06-04T09:20:26.153Z,12.90
2018-06-04T09:21:26.135Z,13.10
2018-06-04T09:22:26.120Z,14.80
2018-06-04T09:23:26.103Z,13.60
2018-06-04T09:24:26.073Z,13.00
2018-06-04T09:25:26.053Z,12.30
2018-06-04T09:26:26.030Z,12.90
2018-06-04T09:27:25.994Z,11.60
2018-06-04T09:28:26.015Z,12.60
2018-06-04T09:29:25.949Z,12.30
2018-06-04T09:30:25.936Z,12.30
2018-06-04T09:31:25.927Z,12.30
2018-06-04T09:32:25.871Z,11.20
2018-06-04T09:33:25.881Z,11.60
2018-06-04T09:34:25.839Z,11.30
2018-06-04T09:35:25.809Z,12.40
2018-06-04T09:36:25.815Z,11.70
2018-06-04T09:37:25.776Z,11.30
2018-06-04T09:38:25.747Z,12.20
2018-06-04T09:39:25.748Z,12.70
2018-06-04T09:40:25.699Z,12.70
2018-06-04T09:41:25.677Z,12.80
2018-06-04T09:42:25.663Z,13.40
2018-06-04T09:43:25.656Z,12.80
2018-06-04T09:44:25.626Z,13.10
2018-06-04T09:45:25.593Z,13.20
2018-06-04T09:46:25.564Z,12.50
2018-06-04T09:47:25.606Z,11.40
2018-06-04T09:48:25.548Z,11.60
2018-06-04T09:49:25.521Z,11.90
2018-06-04T09:50:25.488Z,12.10
2018-06-04T09:51:25.476Z,11.90
2018-06-04T09:52:25.467Z,12.50
2018-06-04T09:53:25.429Z,11.50
2018-06-04T09:54:25.447Z,11.10
2018-06-04T09:55:25.420Z,11.70
2018-06-04T09:56:25.342Z,11.40
2018-06-04T09:57:25.352Z,11.60
2018-06-04T09:58:25.336Z,11.40
2018-06-04T09:59:25.324Z,11.30
2018-06-04T10:00:25.271Z,11.30
2018-06-04T10:01:25.322Z,12.10
2018-06-04T10:02:25.253Z,11.40
2018-06-04T10:03:25.215Z,11.60
2018-06-04T10:04:25.223Z,11.00
2018-06-04T10:05:25.171Z,11.30
2018-06-04T10:06:25.164Z,12.40
2018-06-04T10:07:25.167Z,11.50
2018-06-04T10:08:25.203Z,11.30
2018-06-04T10:09:25.133Z,10.60
2018-06-04T10:10:25.104Z,10.00
2018-06-04T10:11:25.081Z,9.90
2018-06-04T10:12:25.042Z,10.10
2018-06-04T10:13:25.037Z,9.40
2018-06-04T10:14:25.001Z,9.10
2018-06-04T10:15:25.004Z,10.50
2018-06-04T10:16:24.972Z,10.50
2018-06-04T10:17:24.949Z,10.30
2018-06-04T10:18:24.932Z,9.70
2018-06-04T10:19:24.924Z,9.50
2018-06-04T10:20:24.914Z,9.30
2018-06-04T10:21:24.901Z,9.60
2018-06-04T10:22:24.894Z,9.70
2018-06-04T10:23:24.898Z,8.80
2018-06-04T10:24:24.911Z,8.80
2018-06-04T10:25:24.894Z,9.20
2018-06-04T10:26:25.282Z,9.00
2018-06-04T10:27:24.776Z,8.90
2018-06-04T10:28:24.757Z,8.70
2018-06-04T10:29:24.758Z,8.70
2018-06-04T10:30:24.719Z,8.60
2018-06-04T10:31:24.697Z,8.90
2018-06-04T10:32:24.692Z,8.30
2018-06-04T10:33:24.691Z,8.00
2018-06-04T10:34:24.633Z,7.70
2018-06-04T10:35:24.629Z,8.20
2018-06-04T10:36:24.581Z,8.30
2018-06-04T10:37:24.574Z,8.10
2018-06-04T10:38:24.546Z,7.90
2018-06-04T10:39:24.519Z,7.90
2018-06-04T10:40:24.549Z,8.00
2018-06-04T10:41:24.490Z,7.80
2018-06-04T10:42:24.490Z,7.60
2018-06-04T10:43:24.464Z,7.40
2018-06-04T10:44:24.445Z,7.70
2018-06-04T10:45:24.418Z,7.00
2018-06-04T10:46:24.389Z,7.00
2018-06-04T10:47:24.392Z,8.10
2018-06-04T10:48:24.361Z,8.30
2018-06-04T10:49:24.330Z,8.30
2018-06-04T10:50:24.321Z,8.90
2018-06-04T10:51:24.286Z,8.50
2018-06-04T10:52:24.267Z,8.00
2018-06-04T10:53:24.257Z,8.50
2018-06-04T10:54:24.261Z,8.30
2018-06-04T10:55:24.239Z,8.20
2018-06-04T10:56:24.209Z,8.60
2018-06-04T10:57:24.187Z,8.30
2018-06-04T10:58:24.158Z,7.80
2018-06-04T10:59:24.116Z,7.70
2018-06-04T11:00:24.120Z,7.90
2018-06-04T11:01:24.076Z,7.80
2018-06-04T11:02:24.080Z,7.60
2018-06-04T11:03:24.056Z,7.30
2018-06-04T11:04:24.046Z,7.00
2018-06-04T11:05:24.086Z,7.00
2018-06-04T11:06:24.018Z,7.40
2018-06-04T11:07:23.963Z,7.50
2018-06-04T11:08:23.956Z,7.60
2018-06-04T11:09:23.935Z,7.00
2018-06-04T11:10:23.887Z,7.20
2018-06-04T11:11:23.885Z,7.20
2018-06-04T11:12:23.885Z,7.10
2018-06-04T11:13:23.849Z,7.00
2018-06-04T11:14:23.823Z,7.40
2018-06-04T11:15:23.821Z,7.20
2018-06-04T11:16:23.806Z,7.50
2018-06-04T11:17:23.796Z,7.10
2018-06-04T11:18:23.747Z,6.70
2018-06-04T11:19:23.746Z,6.90
2018-06-04T11:20:23.739Z,6.70
2018-06-04T11:21:23.713Z,7.50
2018-06-04T11:22:23.662Z,6.50
2018-06-04T11:23:23.674Z,6.70
2018-06-04T11:24:23.731Z,7.10
2018-06-04T11:25:23.739Z,7.20
2018-06-04T11:26:23.654Z,7.60
2018-06-04T11:27:23.587Z,7.70
2018-06-04T11:28:23.556Z,8.90
2018-06-04T11:29:23.609Z,8.70
2018-06-04T11:30:23.562Z,8.90
2018-06-04T11:31:23.485Z,8.70
2018-06-04T11:32:23.492Z,8.60
2018-06-04T11:33:23.457Z,7.80
2018-06-04T11:34:23.437Z,8.00
2018-06-04T11:35:23.429Z,8.30
2018-06-04T11:36:23.419Z,7.60
2018-06-04T11:37:23.388Z,7.10
2018-06-04T11:38:23.358Z,8.20
2018-06-04T11:39:23.389Z,7.50
2018-06-04T11:40:23.323Z,7.60
2018-06-04T11:41:23.344Z,8.10
2018-06-04T11:42:23.277Z,7.80
2018-06-04T11:43:23.262Z,7.80
2018-06-04T11:44:23.243Z,7.70
2018-06-04T11:45:23.228Z,7.30
2018-06-04T11:46:23.204Z,7.60
2018-06-04T11:47:23.164Z,7.50
2018-06-04T11:48:23.187Z,7.70
2018-06-04T11:49:23.174Z,7.40
2018-06-04T11:50:23.198Z,7.60
2018-06-04T11:51:23.121Z,8.50
2018-06-04T11:52:23.060Z,7.70
2018-06-04T11:53:23.040Z,7.50
2018-06-04T11:54:23.995Z,8.10
2018-06-04T11:55:22.999Z,7.20
2018-06-04T11:56:24.019Z,7.00
2018-06-04T11:57:22.976Z,7.00
2018-06-04T11:58:23.004Z,7.30
2018-06-04T11:59:22.923Z,7.30
2018-06-04T12:00:22.904Z,7.40
2018-06-04T12:01:22.884Z,7.10
2018-06-04T12:02:22.876Z,6.70
2018-06-04T12:03:22.817Z,7.00
2018-06-04T12:04:22.828Z,7.20
2018-06-04T12:05:22.825Z,7.00
2018-06-04T12:06:22.815Z,7.40
2018-06-04T12:07:22.743Z,6.90
2018-06-04T12:08:22.736Z,7.00
2018-06-04T12:09:22.709Z,7.30
2018-06-04T12:10:22.691Z,7.80
2018-06-04T12:11:22.675Z,7.80
2018-06-04T12:12:22.643Z,7.80
2018-06-04T12:13:22.636Z,8.00
2018-06-04T12:14:22.595Z,7.60
2018-06-04T12:15:22.593Z,7.30
2018-06-04T12:16:22.561Z,8.30
2018-06-04T12:17:22.559Z,8.20
2018-06-04T12:18:22.532Z,8.60
2018-06-04T12:19:22.504Z,8.00
2018-06-04T12:20:22.501Z,7.70
2018-06-04T12:21:22.473Z,8.00
2018-06-04T12:22:22.451Z,8.00
2018-06-04T12:23:22.447Z,8.30
2018-06-04T12:24:22.387Z,8.20
2018-06-04T12:25:22.399Z,8.40
2018-06-04T12:26:22.380Z,8.60
2018-06-04T12:27:22.326Z,8.20
2018-06-04T12:28:22.317Z,8.50
2018-06-04T12:29:22.314Z,8.50
2018-06-04T12:30:22.261Z,8.00
2018-06-04T12:31:22.276Z,8.00
2018-06-04T12:32:22.239Z,8.20
2018-06-04T12:33:22.238Z,8.30
2018-06-04T12:34:22.213Z,7.60
2018-06-04T12:35:22.171Z,8.10
2018-06-04T12:36:22.160Z,7.70
2018-06-04T12:37:22.128Z,8.40
2018-06-04T12:38:22.130Z,8.00
2018-06-04T12:39:22.100Z,7.60
2018-06-04T12:40:22.088Z,7.90
2018-06-04T12:41:22.060Z,7.60
2018-06-04T12:42:22.014Z,7.50
2018-06-04T12:43:22.013Z,7.60
2018-06-04T12:44:22.033Z,7.80
2018-06-04T12:45:21.982Z,8.20
2018-06-04T12:46:22.014Z,7.50
2018-06-04T12:47:21.931Z,7.90
2018-06-04T12:48:21.930Z,7.50
2018-06-04T12:49:21.889Z,7.70
2018-06-04T12:50:21.873Z,7.30
2018-06-04T12:51:21.873Z,7.70
2018-06-04T12:52:21.857Z,8.10
2018-06-04T12:53:21.826Z,7.40
2018-06-04T12:54:21.811Z,7.20
2018-06-04T12:55:21.792Z,7.40
2018-06-04T12:56:21.749Z,7.50
2018-06-04T12:57:21.756Z,7.30
2018-06-04T12:58:21.732Z,7.50
2018-06-04T12:59:21.706Z,6.90
2018-06-04T13:00:21.679Z,7.50
2018-06-04T13:01:21.658Z,7.60